createdAt,value
2023-04-09T00:02:14.698Z,100.00
2023-04-09T00:04:41.280Z,100.00
2023-04-09T00:07:07.842Z,100.00
2023-04-09T00:09:34.565Z,100.00
2023-04-09T00:12:02.301Z,100.00
2023-04-09T00:14:29.030Z,100.00
2023-04-09T00:16:55.796Z,100.00
2023-04-09T00:19:22.578Z,100.00
2023-04-09T00:21:49.275Z,100.00
2023-04-09T00:24:16.148Z,100.00
2023-04-09T00:26:42.915Z,100.00
2023-04-09T00:29:09.590Z,100.00
2023-04-09T00:31:36.200Z,100.00
2023-04-09T00:34:02.921Z,100.00
2023-04-09T00:36:29.617Z,100.00
2023-04-09T00:38:56.271Z,100.00
2023-04-09T00:41:22.935Z,100.00
2023-04-09T00:43:49.520Z,100.00
2023-04-09T00:46:17.586Z,100.00
2023-04-09T00:48:44.260Z,100.00
2023-04-09T00:51:11.068Z,100.00
2023-04-09T00:53:37.866Z,100.00
2023-04-09T00:56:06.258Z,100.00
2023-04-09T00:58:32.823Z,100.00
2023-04-09T01:00:59.567Z,100.00
2023-04-09T01:03:26.503Z,100.00
2023-04-09T01:06:15.684Z,100.00
2023-04-09T01:08:53.059Z,100.00
2023-04-09T01:11:46.556Z,100.00
2023-04-09T01:14:35.093Z,100.00
2023-04-09T01:17:15.646Z,100.00
2023-04-09T01:20:12.231Z,100.00
2023-04-09T01:22:53.455Z,100.00
2023-04-09T01:25:27.563Z,100.00
2023-04-09T01:28:19.297Z,100.00
2023-04-09T01:30:50.305Z,100.00
2023-04-09T01:33:19.186Z,100.00
2023-04-09T01:35:47.965Z,100.00
2023-04-09T01:38:16.718Z,100.00
2023-04-09T01:40:43.763Z,100.00
2023-04-09T01:43:12.141Z,100.00
2023-04-09T01:45:40.425Z,100.00
2023-04-09T01:48:07.712Z,100.00
2023-04-09T01:50:34.495Z,100.00
2023-04-09T01:53:02.503Z,100.00
2023-04-09T01:55:29.114Z,100.00
2023-04-09T01:57:55.908Z,100.00
2023-04-09T02:00:24.658Z,100.00
2023-04-09T02:03:00.853Z,100.00
2023-04-09T02:05:32.396Z,100.00
2023-04-09T02:08:02.934Z,100.00
2023-04-09T02:10:32.211Z,100.00
2023-04-09T02:13:03.708Z,100.00
2023-04-09T02:15:32.402Z,100.00
2023-04-09T02:17:59.136Z,100.00
2023-04-09T02:20:25.733Z,100.00
2023-04-09T02:22:52.510Z,100.00
2023-04-09T02:25:19.423Z,100.00
2023-04-09T02:27:46.055Z,100.00
2023-04-09T02:30:12.822Z,100.00
2023-04-09T02:32:39.537Z,100.00
2023-04-09T02:35:06.584Z,100.00
2023-04-09T02:37:35.443Z,100.00
2023-04-09T02:40:02.065Z,100.00
2023-04-09T02:42:28.667Z,100.00
2023-04-09T02:44:55.344Z,100.00
2023-04-09T02:47:22.082Z,100.00
2023-04-09T02:49:48.722Z,100.00
2023-04-09T02:55:09.641Z,100.00
2023-04-09T02:57:36.500Z,100.00
2023-04-09T03:00:03.156Z,100.00
2023-04-09T03:02:30.030Z,100.00
2023-04-09T03:04:56.808Z,100.00
2023-04-09T03:07:23.426Z,100.00
2023-04-09T03:09:50.019Z,100.00
2023-04-09T03:12:16.785Z,100.00
2023-04-09T03:14:43.415Z,100.00
2023-04-09T03:17:10.064Z,100.00
2023-04-09T03:19:36.655Z,100.00
2023-04-09T03:22:03.314Z,100.00
2023-04-09T03:24:31.486Z,100.00
2023-04-09T03:26:58.239Z,100.00
2023-04-09T03:29:24.819Z,100.00
2023-04-09T03:31:51.628Z,100.00
2023-04-09T03:34:18.259Z,100.00
2023-04-09T03:36:44.983Z,100.00
2023-04-09T03:39:11.647Z,100.00
2023-04-09T03:41:38.355Z,100.00
2023-04-09T03:44:05.185Z,100.00
2023-04-09T03:46:31.870Z,100.00
2023-04-09T03:48:58.533Z,100.00
2023-04-09T03:51:25.086Z,100.00
2023-04-09T03:53:51.762Z,100.00
2023-04-09T03:56:18.492Z,100.00
2023-04-09T03:58:45.010Z,100.00
2023-04-09T04:01:11.697Z,100.00
2023-04-09T04:03:38.489Z,100.00
2023-04-09T04:06:05.602Z,100.00
2023-04-09T04:08:32.185Z,100.00
2023-04-09T04:11:05.649Z,100.00
2023-04-09T04:13:32.418Z,100.00
2023-04-09T04:15:59.288Z,100.00
2023-04-09T04:18:25.926Z,100.00
2023-04-09T04:20:52.616Z,100.00
2023-04-09T04:23:19.178Z,100.00
2023-04-09T04:25:45.786Z,100.00
2023-04-09T04:28:12.457Z,100.00
2023-04-09T04:30:42.175Z,100.00
2023-04-09T04:33:09.048Z,100.00
2023-04-09T04:35:35.700Z,100.00
2023-04-09T04:38:02.726Z,100.00
2023-04-09T04:40:29.370Z,100.00
2023-04-09T04:42:56.004Z,100.00
2023-04-09T04:45:22.563Z,100.00
2023-04-09T04:47:49.309Z,100.00
2023-04-09T04:50:15.965Z,100.00
2023-04-09T04:52:42.598Z,100.00
2023-04-09T04:55:09.248Z,100.00
2023-04-09T04:57:36.004Z,100.00
2023-04-09T05:00:02.787Z,100.00
2023-04-09T05:02:29.632Z,100.00
2023-04-09T05:04:56.527Z,100.00
2023-04-09T05:07:23.281Z,100.00
2023-04-09T05:09:49.954Z,100.00
2023-04-09T05:12:18.176Z,100.00
2023-04-09T05:14:44.698Z,100.00
2023-04-09T05:17:11.279Z,100.00
2023-04-09T05:19:37.981Z,100.00
2023-04-09T05:22:04.714Z,100.00
2023-04-09T05:24:31.289Z,100.00
2023-04-09T05:26:58.072Z,100.00
2023-04-09T05:29:24.708Z,100.00
2023-04-09T05:31:51.306Z,100.00
2023-04-09T05:34:17.900Z,100.00
2023-04-09T05:36:44.473Z,100.00
2023-04-09T05:39:11.137Z,100.00
2023-04-09T05:41:38.805Z,100.00
2023-04-09T05:44:06.165Z,100.00
2023-04-09T05:46:32.882Z,100.00
2023-04-09T05:48:59.583Z,100.00
2023-04-09T05:51:26.330Z,100.00
2023-04-09T05:53:53.201Z,100.00
2023-04-09T05:56:22.768Z,100.00
2023-04-09T05:58:49.368Z,100.00
2023-04-09T06:01:16.152Z,100.00
2023-04-09T06:03:43.793Z,100.00
2023-04-09T06:06:11.112Z,100.00
2023-04-09T06:08:37.652Z,100.00
2023-04-09T06:11:04.894Z,100.00
2023-04-09T06:13:31.356Z,100.00
2023-04-09T06:15:58.007Z,100.00
2023-04-09T06:18:24.674Z,100.00
2023-04-09T06:20:51.341Z,100.00
2023-04-09T06:23:17.973Z,100.00
2023-04-09T06:25:44.521Z,100.00
2023-04-09T06:28:11.808Z,99.32
2023-04-09T06:30:38.467Z,97.21
2023-04-09T06:33:05.085Z,97.55
2023-04-09T06:35:31.914Z,96.38
2023-04-09T06:37:58.628Z,95.45
2023-04-09T06:40:25.237Z,93.17
2023-04-09T06:42:51.969Z,91.33
2023-04-09T06:45:18.551Z,90.57
2023-04-09T06:47:45.210Z,89.07
2023-04-09T06:50:11.912Z,88.97
2023-04-09T06:52:38.515Z,87.04
2023-04-09T06:55:05.893Z,86.34
2023-04-09T06:57:32.531Z,86.19
2023-04-09T06:59:59.334Z,84.49
2023-04-09T07:02:26.601Z,84.14
2023-04-09T07:04:53.596Z,81.71
2023-04-09T07:07:21.065Z,81.06
2023-04-09T07:09:47.643Z,81.60
2023-04-09T07:12:14.399Z,79.90
2023-04-09T07:14:40.969Z,79.15
2023-04-09T07:17:07.579Z,76.74
2023-04-09T07:19:34.427Z,75.67
2023-04-09T07:22:01.045Z,75.53
2023-04-09T07:24:27.655Z,77.20
2023-04-09T07:26:54.839Z,75.24
2023-04-09T07:29:22.530Z,74.64
2023-04-09T07:31:49.276Z,73.43
2023-04-09T07:34:15.970Z,72.73
2023-04-09T07:36:43.040Z,72.54
2023-04-09T07:39:09.821Z,70.96
2023-04-09T07:41:36.851Z,70.36
2023-04-09T07:44:04.308Z,69.10
2023-04-09T07:46:30.927Z,68.65
2023-04-09T07:48:57.603Z,68.49
2023-04-09T07:51:25.264Z,70.02
2023-04-09T07:53:51.859Z,68.51
2023-04-09T07:56:18.414Z,67.25
2023-04-09T07:58:45.029Z,66.23
2023-04-09T08:01:11.725Z,65.65
2023-04-09T08:03:38.568Z,65.29
2023-04-09T08:06:05.581Z,64.38
2023-04-09T08:08:32.173Z,64.42
2023-04-09T08:10:58.791Z,64.44
2023-04-09T08:13:25.559Z,63.92
2023-04-09T08:15:52.382Z,61.86
2023-04-09T08:18:19.079Z,61.05
2023-04-09T08:20:45.831Z,59.73
2023-04-09T08:23:12.859Z,61.48
2023-04-09T08:25:39.452Z,61.50
2023-04-09T08:28:06.673Z,62.31
2023-04-09T08:30:34.431Z,61.62
2023-04-09T08:33:02.259Z,61.74
2023-04-09T08:35:31.144Z,60.37
2023-04-09T08:37:58.096Z,59.60
2023-04-09T08:40:24.742Z,61.97
2023-04-09T08:42:57.220Z,62.53
2023-04-09T08:45:24.321Z,61.81
2023-04-09T08:47:51.791Z,58.89
2023-04-09T08:50:19.564Z,58.63
2023-04-09T08:52:49.257Z,59.38
2023-04-09T08:55:16.132Z,60.03
2023-04-09T08:57:43.544Z,58.92
2023-04-09T09:00:10.884Z,59.62
2023-04-09T09:02:39.585Z,59.39
2023-04-09T09:05:06.811Z,60.00
2023-04-09T09:07:34.282Z,61.78
2023-04-09T09:10:05.198Z,60.68
2023-04-09T09:12:39.575Z,60.89
2023-04-09T09:15:27.093Z,61.58
2023-04-09T09:18:00.234Z,61.22
2023-04-09T09:20:27.845Z,61.34
2023-04-09T09:22:56.635Z,66.07
2023-04-09T09:25:24.895Z,66.26
2023-04-09T09:27:52.590Z,68.35
2023-04-09T09:30:27.448Z,66.39
2023-04-09T09:32:55.075Z,65.09
2023-04-09T09:35:22.013Z,64.33
2023-04-09T09:38:01.489Z,63.07
2023-04-09T09:40:28.877Z,63.70
2023-04-09T09:42:58.262Z,64.84
2023-04-09T09:45:25.958Z,62.94
2023-04-09T09:47:54.031Z,61.73
2023-04-09T09:50:25.489Z,60.45
2023-04-09T09:52:59.057Z,61.38
2023-04-09T09:55:31.101Z,60.99
2023-04-09T09:58:02.175Z,61.17
2023-04-09T10:00:32.148Z,61.11
2023-04-09T10:03:14.678Z,58.36
2023-04-09T10:05:42.237Z,60.81
2023-04-09T10:08:10.311Z,60.70
2023-04-09T10:10:39.328Z,60.68
2023-04-09T10:13:07.811Z,59.70
2023-04-09T10:15:34.492Z,60.38
2023-04-09T10:18:02.113Z,59.73
2023-04-09T10:21:12.679Z,58.79
2023-04-09T10:23:44.501Z,61.85
2023-04-09T10:26:11.506Z,62.47
2023-04-09T10:28:38.584Z,61.48
2023-04-09T10:31:06.979Z,58.19
2023-04-09T10:33:37.315Z,57.41
2023-04-09T10:36:06.251Z,56.60
2023-04-09T10:38:47.007Z,56.31
2023-04-09T10:41:27.899Z,56.16
2023-04-09T10:43:57.802Z,55.43
2023-04-09T10:46:35.010Z,58.20
2023-04-09T10:49:12.428Z,60.36
2023-04-09T10:51:40.354Z,62.05
2023-04-09T10:54:27.889Z,61.68
2023-04-09T10:57:24.746Z,58.52
2023-04-09T10:59:55.666Z,57.48
2023-04-09T11:02:40.739Z,59.05
2023-04-09T11:05:26.046Z,61.84
2023-04-09T11:08:04.598Z,60.75
2023-04-09T11:10:32.438Z,59.69
2023-04-09T11:12:59.779Z,60.64
2023-04-09T11:15:26.632Z,61.50
2023-04-09T11:17:53.332Z,60.78
2023-04-09T11:20:24.120Z,60.53
2023-04-09T11:22:52.657Z,61.62
2023-04-09T11:25:25.607Z,61.78
2023-04-09T11:27:55.977Z,60.88
2023-04-09T11:30:22.642Z,58.13
2023-04-09T11:32:50.464Z,58.60
2023-04-09T11:35:19.842Z,59.30
2023-04-09T11:37:47.455Z,59.55
2023-04-09T11:40:19.981Z,57.04
2023-04-09T11:42:48.872Z,55.94
2023-04-09T11:45:16.973Z,56.14
2023-04-09T11:47:44.895Z,56.69
2023-04-09T11:50:13.310Z,56.84
2023-04-09T11:52:41.537Z,57.67
2023-04-09T11:55:10.588Z,59.11
2023-04-09T11:57:41.861Z,59.57
2023-04-09T12:00:13.976Z,58.09
2023-04-09T12:02:46.766Z,57.51
2023-04-09T12:05:41.057Z,56.12
2023-04-09T12:08:09.069Z,56.90
2023-04-09T12:10:38.220Z,56.42
2023-04-09T12:13:10.581Z,54.97
2023-04-09T12:15:41.253Z,54.29
2023-04-09T12:18:09.536Z,54.16
2023-04-09T12:20:39.823Z,55.86
2023-04-09T12:23:07.574Z,54.96
2023-04-09T12:25:37.719Z,55.43
2023-04-09T12:28:06.617Z,53.73
2023-04-09T12:30:34.002Z,53.82
2023-04-09T12:33:01.233Z,54.54
2023-04-09T12:35:28.443Z,55.79
2023-04-09T12:37:55.761Z,57.61
2023-04-09T12:40:22.681Z,58.25
2023-04-09T12:42:49.549Z,56.53
2023-04-09T12:45:18.521Z,54.54
2023-04-09T12:47:46.022Z,54.87
2023-04-09T12:50:13.733Z,54.16
2023-04-09T12:52:40.668Z,54.70
2023-04-09T12:55:08.036Z,55.52
2023-04-09T12:57:34.976Z,56.19
2023-04-09T13:00:01.916Z,55.33
2023-04-09T13:02:28.827Z,56.83
2023-04-09T13:04:55.785Z,56.12
2023-04-09T13:07:22.902Z,56.67
2023-04-09T13:09:52.768Z,55.16
2023-04-09T13:12:21.594Z,56.13
2023-04-09T13:14:48.888Z,56.54
2023-04-09T13:17:16.433Z,57.26
2023-04-09T13:19:43.206Z,55.28
2023-04-09T13:22:10.607Z,56.07
2023-04-09T13:24:38.142Z,57.78
2023-04-09T13:27:06.507Z,57.58
2023-04-09T13:29:33.379Z,58.11
2023-04-09T13:32:02.946Z,58.34
2023-04-09T13:34:29.868Z,58.74
2023-04-09T13:36:56.736Z,58.29
2023-04-09T13:39:23.396Z,59.58
2023-04-09T13:41:50.031Z,59.06
2023-04-09T13:44:17.016Z,59.42
2023-04-09T13:46:43.768Z,57.57
2023-04-09T13:49:10.394Z,58.96
2023-04-09T13:51:37.276Z,58.67
2023-04-09T13:54:06.017Z,58.38
2023-04-09T13:56:33.141Z,60.01
2023-04-09T13:59:00.096Z,60.86
2023-04-09T14:01:28.458Z,59.66
2023-04-09T14:03:55.622Z,58.16
2023-04-09T14:06:22.873Z,59.69
2023-04-09T14:08:49.723Z,60.52
2023-04-09T14:11:16.943Z,60.70
2023-04-09T14:13:43.728Z,59.11
2023-04-09T14:16:10.801Z,60.19
2023-04-09T14:18:37.617Z,60.46
2023-04-09T14:21:04.787Z,61.42
2023-04-09T14:23:31.460Z,60.46
2023-04-09T14:25:58.264Z,60.71
2023-04-09T14:28:24.946Z,60.88
2023-04-09T14:30:51.713Z,60.00
2023-04-09T14:33:18.441Z,61.34
2023-04-09T14:35:45.277Z,58.54
2023-04-09T14:38:12.914Z,59.14
2023-04-09T14:40:39.470Z,58.52
2023-04-09T14:43:06.488Z,58.37
2023-04-09T14:45:33.248Z,59.79
2023-04-09T14:47:59.917Z,58.31
2023-04-09T14:50:26.762Z,58.74
2023-04-09T14:52:53.497Z,58.07
2023-04-09T14:55:20.328Z,59.67
2023-04-09T14:57:47.100Z,58.97
2023-04-09T15:00:13.911Z,58.44
2023-04-09T15:02:41.741Z,56.83
2023-04-09T15:05:09.185Z,57.13
2023-04-09T15:07:35.969Z,58.29
2023-04-09T15:10:02.950Z,58.13
2023-04-09T15:12:31.940Z,56.58
2023-04-09T15:14:58.847Z,56.66
2023-04-09T15:17:26.728Z,56.74
2023-04-09T15:19:54.304Z,56.12
2023-04-09T15:22:21.603Z,54.81
2023-04-09T15:24:48.313Z,54.75
2023-04-09T15:27:15.135Z,55.53
2023-04-09T15:29:41.872Z,54.62
2023-04-09T15:32:08.443Z,55.89
2023-04-09T15:34:35.172Z,55.91
2023-04-09T15:37:01.867Z,54.94
2023-04-09T15:39:28.740Z,56.10
2023-04-09T15:41:59.136Z,56.45
2023-04-09T15:44:26.235Z,57.94
2023-04-09T15:46:53.023Z,55.96
2023-04-09T15:49:20.159Z,55.16
2023-04-09T15:51:46.862Z,61.94
2023-04-09T15:54:13.524Z,63.92
2023-04-09T15:56:40.521Z,64.95
2023-04-09T15:59:08.485Z,65.36
2023-04-09T16:01:36.660Z,66.13
2023-04-09T16:04:04.933Z,67.69
2023-04-09T16:06:32.076Z,67.29
2023-04-09T16:08:58.914Z,67.71
2023-04-09T16:11:26.356Z,68.42
2023-04-09T16:13:53.447Z,69.73
2023-04-09T16:16:21.115Z,70.52
2023-04-09T16:18:47.898Z,70.65
2023-04-09T16:21:14.954Z,69.86
2023-04-09T16:23:41.747Z,69.58
2023-04-09T16:26:08.597Z,70.54
2023-04-09T16:28:35.508Z,70.57
2023-04-09T16:31:02.120Z,70.70
2023-04-09T16:33:28.780Z,70.46
2023-04-09T16:35:55.513Z,70.47
2023-04-09T16:38:23.824Z,70.15
2023-04-09T16:40:50.834Z,70.13
2023-04-09T16:43:17.656Z,71.10
2023-04-09T16:45:44.396Z,71.60
2023-04-09T16:48:12.612Z,71.55
2023-04-09T16:50:40.146Z,70.65
2023-04-09T16:53:08.435Z,70.99
2023-04-09T16:55:35.421Z,72.07
2023-04-09T16:58:02.014Z,72.50
2023-04-09T17:00:28.831Z,73.08
2023-04-09T17:02:56.839Z,72.41
2023-04-09T17:05:23.896Z,73.11
2023-04-09T17:07:50.633Z,72.22
2023-04-09T17:10:18.981Z,72.48
2023-04-09T17:12:45.893Z,72.52
2023-04-09T17:15:12.993Z,72.74
2023-04-09T17:17:39.828Z,72.46
2023-04-09T17:20:07.057Z,73.07
2023-04-09T17:22:35.166Z,73.06
2023-04-09T17:25:02.706Z,72.83
2023-04-09T17:27:29.316Z,72.70
2023-04-09T17:29:56.182Z,73.12
2023-04-09T17:32:22.885Z,73.19
2023-04-09T17:34:49.638Z,73.15
2023-04-09T17:37:16.596Z,73.41
2023-04-09T17:39:43.131Z,73.40
2023-04-09T17:42:12.025Z,74.47
2023-04-09T17:44:39.037Z,74.13
2023-04-09T17:47:07.556Z,74.65
2023-04-09T17:49:34.740Z,74.81
2023-04-09T17:52:01.817Z,74.51
2023-04-09T17:54:35.211Z,74.30
2023-04-09T17:57:04.233Z,74.81
2023-04-09T17:59:31.296Z,75.19
2023-04-09T18:01:58.167Z,75.32
2023-04-09T18:04:25.572Z,75.67
2023-04-09T18:06:52.711Z,75.94
2023-04-09T18:09:19.424Z,75.71
2023-04-09T18:11:46.607Z,76.44
2023-04-09T18:14:13.421Z,76.66
2023-04-09T18:16:40.467Z,77.06
2023-04-09T18:19:07.847Z,76.00
2023-04-09T18:21:37.857Z,77.19
2023-04-09T18:24:05.201Z,76.68
2023-04-09T18:26:33.946Z,76.31
2023-04-09T18:29:01.411Z,76.30
2023-04-09T18:31:28.727Z,76.78
2023-04-09T18:33:55.666Z,76.55
2023-04-09T18:36:22.537Z,75.94
2023-04-09T18:38:49.289Z,76.07
2023-04-09T18:41:25.596Z,76.97
2023-04-09T18:43:52.553Z,76.65
2023-04-09T18:46:19.438Z,76.69
2023-04-09T18:48:47.300Z,77.21
2023-04-09T18:51:14.883Z,77.38
2023-04-09T18:53:42.294Z,77.15
2023-04-09T18:56:09.371Z,76.76
2023-04-09T18:58:36.564Z,77.09
2023-04-09T19:01:11.432Z,77.18
2023-04-09T19:03:39.563Z,77.41
2023-04-09T19:06:14.608Z,77.02
2023-04-09T19:08:41.899Z,77.75
2023-04-09T19:11:08.585Z,77.48
2023-04-09T19:13:37.293Z,77.46
2023-04-09T19:16:04.730Z,77.71
2023-04-09T19:18:32.254Z,77.92
2023-04-09T19:20:59.004Z,78.55
2023-04-09T19:23:26.876Z,79.31
2023-04-09T19:25:55.397Z,79.26
2023-04-09T19:28:22.993Z,79.53
2023-04-09T19:30:53.855Z,78.37
2023-04-09T19:33:21.874Z,78.52
2023-04-09T19:35:49.241Z,79.23
2023-04-09T19:38:16.602Z,78.62
2023-04-09T19:40:43.432Z,78.36
2023-04-09T19:43:10.820Z,78.51
2023-04-09T19:45:38.801Z,78.91
2023-04-09T19:48:07.017Z,79.45
2023-04-09T19:50:41.282Z,79.01
2023-04-09T19:53:07.981Z,79.41
2023-04-09T19:55:35.035Z,79.71
2023-04-09T19:58:02.118Z,80.16
2023-04-09T20:00:29.090Z,80.19
2023-04-09T20:02:57.429Z,80.18
2023-04-09T20:05:24.435Z,80.72
2023-04-09T20:07:51.917Z,81.27
2023-04-09T20:10:19.231Z,81.05
2023-04-09T20:12:49.634Z,80.68
2023-04-09T20:15:20.513Z,81.12
2023-04-09T20:17:48.407Z,81.69
2023-04-09T20:20:19.842Z,81.62
2023-04-09T20:22:56.460Z,81.82
2023-04-09T20:25:24.477Z,81.83
2023-04-09T20:27:54.673Z,81.52
2023-04-09T20:30:21.557Z,81.71
2023-04-09T20:32:49.233Z,81.72
2023-04-09T20:35:16.079Z,82.00
2023-04-09T20:37:42.712Z,81.83
2023-04-09T20:40:11.822Z,83.12
2023-04-09T20:42:40.698Z,83.41
2023-04-09T20:45:08.464Z,84.03
2023-04-09T20:47:35.179Z,84.21
2023-04-09T20:50:02.372Z,83.85
2023-04-09T20:52:29.136Z,83.03
2023-04-09T20:54:57.358Z,83.53
2023-04-09T20:57:24.099Z,83.52
2023-04-09T20:59:51.058Z,83.08
2023-04-09T21:02:17.856Z,83.47
2023-04-09T21:04:44.971Z,84.14
2023-04-09T21:07:11.759Z,84.37
2023-04-09T21:09:38.548Z,84.83
2023-04-09T21:12:06.358Z,85.15
2023-04-09T21:14:33.174Z,85.35
2023-04-09T21:17:00.031Z,85.81
2023-04-09T21:19:26.707Z,85.36
2023-04-09T21:21:53.364Z,85.65
2023-04-09T21:24:20.084Z,85.41
2023-04-09T21:26:51.611Z,85.88
2023-04-09T21:29:21.318Z,85.74
2023-04-09T21:31:48.944Z,85.80
2023-04-09T21:34:16.241Z,85.52
2023-04-09T21:36:45.340Z,86.36
2023-04-09T21:39:12.469Z,86.24
2023-04-09T21:41:39.469Z,85.69
2023-04-09T21:44:08.698Z,85.70
2023-04-09T21:46:40.941Z,85.62
2023-04-09T21:49:07.733Z,86.50
2023-04-09T21:51:34.553Z,86.61
2023-04-09T21:54:04.755Z,86.23
2023-04-09T21:56:32.694Z,86.18
2023-04-09T21:58:59.544Z,85.96
2023-04-09T22:01:29.500Z,86.26
2023-04-09T22:03:58.098Z,86.84
2023-04-09T22:06:24.792Z,86.87
2023-04-09T22:08:56.328Z,86.94
2023-04-09T22:11:26.862Z,86.71
2023-04-09T22:13:53.789Z,87.17
2023-04-09T22:16:20.692Z,87.14
2023-04-09T22:18:47.501Z,86.89
2023-04-09T22:21:15.874Z,87.18
2023-04-09T22:23:42.702Z,87.05
2023-04-09T22:26:09.464Z,87.25
2023-04-09T22:28:36.115Z,87.71
2023-04-09T22:31:02.811Z,87.59
2023-04-09T22:33:29.445Z,87.52
2023-04-09T22:35:56.315Z,87.31
2023-04-09T22:38:23.118Z,87.60
2023-04-09T22:40:49.664Z,87.52
2023-04-09T22:43:17.318Z,87.60
2023-04-09T22:45:51.586Z,87.29
2023-04-09T22:48:19.107Z,86.68
2023-04-09T22:50:46.157Z,87.22
2023-04-09T22:53:13.292Z,86.87
2023-04-09T22:55:39.922Z,86.57
2023-04-09T22:58:06.792Z,86.52
2023-04-09T23:00:33.364Z,86.54
2023-04-09T23:03:00.210Z,86.01
2023-04-09T23:05:27.012Z,86.46
2023-04-09T23:07:53.673Z,86.63
2023-04-09T23:10:20.693Z,86.43
2023-04-09T23:12:47.309Z,86.55
2023-04-09T23:15:14.194Z,86.46
2023-04-09T23:17:41.915Z,86.39
2023-04-09T23:20:11.417Z,86.47
2023-04-09T23:22:38.030Z,86.61
2023-04-09T23:25:05.023Z,86.56
2023-04-09T23:27:31.609Z,86.21
2023-04-09T23:29:58.671Z,85.95
2023-04-09T23:32:25.444Z,85.56
2023-04-09T23:34:52.286Z,86.02
2023-04-09T23:37:19.281Z,85.80
2023-04-09T23:39:48.899Z,85.65
2023-04-09T23:42:15.678Z,85.35
2023-04-09T23:44:44.129Z,84.98
2023-04-09T23:47:11.455Z,85.13
2023-04-09T23:49:38.268Z,84.95
2023-04-09T23:52:05.030Z,84.46
2023-04-09T23:54:32.846Z,84.03
2023-04-09T23:56:59.808Z,84.08
2023-04-09T23:59:26.555Z,84.18
